Japan Airlines Virtual Airport Information Service

Tokyo Haneda International Airport

ICAO: RJTT Country: Japan
Latitude: 35.5522 Longitude: 139.78
Latest Arrival : JAL5 (KJFK-RJTT) Latest Departure : ANA81 (RJTT-RJCC)


WX CaptureLIVE
Data provided by noaa.gov | Fetched at 06:59:51

METAR : RJTT 090630Z 19017KT 9999 -RA FEW020 BKN120 24/22 Q1009 NOSIG RMK 1CU020 7AC120 A2980

TAF : RJTT 090505Z 0906/1012 22016KT 9999 FEW015 BKN030 TEMPO 0911/0914 4000 -SHRA BR FEW005 BKN008


Runway Data for RJTT
Data provided by openaviationdata.com

Runway ID Mag Var Hdg Length Elevation Surface ILS Freq ILS Id ILS Slope
4 -7 41° 8208 ft 21 ft Asphalt -- -- --
16L -7 156° 9851 ft 21 ft Asphalt -- -- --
16R -7 156° 9851 ft 21 ft Asphalt -- -- --
22 -7 221° 8208 ft 21 ft Asphalt 108.1 IAD 3
34L -7 336° 9851 ft 21 ft Asphalt 111.7 IHA 3
34R -7 336° 9851 ft 21 ft Asphalt 108.9 ITC 3

Tokyo Haneda International Airport, Japan
Use only for reference purposes



Not for navigational purposes.